Current | Forecast
Updated: 12:30 PM EET on February 18, 2018
Observed at Zaporizhzhia, Ukraine
Temperature 1°C
Humidity 93%
Dew Point 0°C
Wind Variable at 4 km/h
Pressure 1021 hPa (Steady)
Conditions Mostly Cloudy
Visibility 10.0 kilometers
UV 2 out of 16
Clouds Mostly Cloudy (BKN) : 640 m
Yesterday's Maximum 0°C
Yesterday's Minimum -2°C approx.
Yesterday's Heating Degree Days 35 approx.
Sunrise6:40 AM EET
Sunset5:08 PM EET
Moon Rise8:01 AM EET
Moon Set7:52 PM EET
Moon PhaseMoon Phase
Waxing Crescent
Raw METARMETAR UKDE 181030Z VRB01MPS 9999 BKN021 01/M00 Q1021 R02/290357 TEMPO 0300 FZFG VV002


Monday
. High: 62° F.
Tuesday
. High: 64° F.
Wednesday
. High: 64° F.
Thursday
. High: 69° F.
Friday
. High: 66° F.
Saturday
. High: 55° F.
Sunday
. High: 62° F.
Monday
. High: 68° F.

Units: English | Metric

Find the Weather for any City, State or Zipcode, or Country:

U.S. State List | Severe Weather | Tropical Storms | Ski Conditions
United States | Canada | Central America | South America | Asia | Europe | Australia | Africa | Islands

Weather Underground

© Copyright 2018
The Weather Company, LLC